sensor_id;sensor_type;location;lat;lon;timestamp;P1;durP1;ratioP1;P2;durP2;ratioP2
20306;SDS011;10312;52.434;13.206;2022-08-21T00:01:40;5.95;;;4.72;;
20306;SDS011;10312;52.434;13.206;2022-08-21T00:04:07;6.22;;;5.15;;
20306;SDS011;10312;52.434;13.206;2022-08-21T00:06:35;6.40;;;4.57;;
20306;SDS011;10312;52.434;13.206;2022-08-21T00:09:02;5.88;;;4.82;;
20306;SDS011;10312;52.434;13.206;2022-08-21T00:11:32;8.00;;;4.70;;
20306;SDS011;10312;52.434;13.206;2022-08-21T00:14:01;6.13;;;4.38;;
20306;SDS011;10312;52.434;13.206;2022-08-21T00:16:29;5.78;;;4.43;;
20306;SDS011;10312;52.434;13.206;2022-08-21T00:18:56;6.18;;;4.60;;
20306;SDS011;10312;52.434;13.206;2022-08-21T00:21:22;5.18;;;4.57;;
20306;SDS011;10312;52.434;13.206;2022-08-21T00:23:49;5.05;;;4.07;;
20306;SDS011;10312;52.434;13.206;2022-08-21T00:26:16;6.43;;;5.20;;
20306;SDS011;10312;52.434;13.206;2022-08-21T00:28:43;7.22;;;4.75;;
20306;SDS011;10312;52.434;13.206;2022-08-21T00:31:12;6.65;;;4.65;;
20306;SDS011;10312;52.434;13.206;2022-08-21T00:33:39;8.15;;;4.60;;
20306;SDS011;10312;52.434;13.206;2022-08-21T00:36:05;7.10;;;4.75;;
20306;SDS011;10312;52.434;13.206;2022-08-21T00:38:33;11.20;;;4.55;;
20306;SDS011;10312;52.434;13.206;2022-08-21T00:41:01;6.38;;;5.15;;
20306;SDS011;10312;52.434;13.206;2022-08-21T00:43:51;11.25;;;5.35;;
20306;SDS011;10312;52.434;13.206;2022-08-21T00:46:18;8.55;;;5.20;;
20306;SDS011;10312;52.434;13.206;2022-08-21T00:48:45;10.90;;;5.22;;
20306;SDS011;10312;52.434;13.206;2022-08-21T00:51:14;10.57;;;5.05;;
20306;SDS011;10312;52.434;13.206;2022-08-21T00:53:45;8.88;;;4.90;;
20306;SDS011;10312;52.434;13.206;2022-08-21T00:56:19;9.48;;;5.30;;
20306;SDS011;10312;52.434;13.206;2022-08-21T00:58:48;7.07;;;4.38;;
20306;SDS011;10312;52.434;13.206;2022-08-21T01:01:20;9.77;;;5.40;;
20306;SDS011;10312;52.434;13.206;2022-08-21T01:03:47;5.95;;;4.90;;
20306;SDS011;10312;52.434;13.206;2022-08-21T01:06:15;7.13;;;5.05;;
20306;SDS011;10312;52.434;13.206;2022-08-21T01:08:43;7.32;;;4.65;;
20306;SDS011;10312;52.434;13.206;2022-08-21T01:11:13;6.10;;;4.80;;
20306;SDS011;10312;52.434;13.206;2022-08-21T01:13:41;5.20;;;4.60;;
20306;SDS011;10312;52.434;13.206;2022-08-21T01:16:13;5.20;;;4.70;;
20306;SDS011;10312;52.434;13.206;2022-08-21T01:18:43;8.00;;;4.97;;
20306;SDS011;10312;52.434;13.206;2022-08-21T01:21:21;8.00;;;4.95;;
20306;SDS011;10312;52.434;13.206;2022-08-21T01:23:54;10.23;;;5.60;;
20306;SDS011;10312;52.434;13.206;2022-08-21T01:26:23;10.23;;;5.10;;
20306;SDS011;10312;52.434;13.206;2022-08-21T01:29:05;6.78;;;5.25;;
20306;SDS011;10312;52.434;13.206;2022-08-21T01:31:38;6.22;;;5.28;;
20306;SDS011;10312;52.434;13.206;2022-08-21T01:34:05;6.53;;;4.38;;
20306;SDS011;10312;52.434;13.206;2022-08-21T01:36:32;7.03;;;4.93;;
20306;SDS011;10312;52.434;13.206;2022-08-21T01:39:00;8.95;;;4.63;;
20306;SDS011;10312;52.434;13.206;2022-08-21T01:41:27;6.28;;;4.80;;
20306;SDS011;10312;52.434;13.206;2022-08-21T01:43:54;7.53;;;4.63;;
20306;SDS011;10312;52.434;13.206;2022-08-21T01:46:21;6.93;;;4.57;;
20306;SDS011;10312;52.434;13.206;2022-08-21T01:48:48;5.45;;;4.55;;
20306;SDS011;10312;52.434;13.206;2022-08-21T01:51:15;8.15;;;4.82;;
20306;SDS011;10312;52.434;13.206;2022-08-21T01:53:41;7.30;;;4.93;;
20306;SDS011;10312;52.434;13.206;2022-08-21T01:56:09;8.77;;;5.00;;
20306;SDS011;10312;52.434;13.206;2022-08-21T01:58:39;5.97;;;4.70;;
20306;SDS011;10312;52.434;13.206;2022-08-21T02:01:06;7.60;;;5.00;;
20306;SDS011;10312;52.434;13.206;2022-08-21T02:03:33;8.30;;;4.97;;
20306;SDS011;10312;52.434;13.206;2022-08-21T02:06:02;10.32;;;5.15;;
20306;SDS011;10312;52.434;13.206;2022-08-21T02:08:30;9.55;;;5.03;;
20306;SDS011;10312;52.434;13.206;2022-08-21T02:10:57;7.93;;;4.90;;
20306;SDS011;10312;52.434;13.206;2022-08-21T02:13:24;6.35;;;4.70;;
20306;SDS011;10312;52.434;13.206;2022-08-21T02:15:51;6.55;;;4.82;;
20306;SDS011;10312;52.434;13.206;2022-08-21T02:18:17;6.68;;;4.35;;
20306;SDS011;10312;52.434;13.206;2022-08-21T02:20:45;5.68;;;4.38;;
20306;SDS011;10312;52.434;13.206;2022-08-21T02:23:13;4.90;;;3.75;;
20306;SDS011;10312;52.434;13.206;2022-08-21T02:25:41;5.35;;;4.10;;
20306;SDS011;10312;52.434;13.206;2022-08-21T02:28:11;8.32;;;4.15;;
20306;SDS011;10312;52.434;13.206;2022-08-21T02:30:41;7.03;;;3.72;;
20306;SDS011;10312;52.434;13.206;2022-08-21T02:33:10;14.75;;;4.47;;
20306;SDS011;10312;52.434;13.206;2022-08-21T02:35:39;6.35;;;3.33;;
20306;SDS011;10312;52.434;13.206;2022-08-21T02:38:09;5.60;;;3.60;;
20306;SDS011;10312;52.434;13.206;2022-08-21T02:40:39;6.18;;;3.60;;
20306;SDS011;10312;52.434;13.206;2022-08-21T02:43:16;6.95;;;3.88;;
20306;SDS011;10312;52.434;13.206;2022-08-21T02:45:44;5.47;;;3.70;;
20306;SDS011;10312;52.434;13.206;2022-08-21T02:48:13;9.73;;;3.88;;
20306;SDS011;10312;52.434;13.206;2022-08-21T02:50:43;7.03;;;3.67;;
20306;SDS011;10312;52.434;13.206;2022-08-21T02:53:15;7.60;;;3.33;;
20306;SDS011;10312;52.434;13.206;2022-08-21T02:55:43;5.53;;;3.67;;
20306;SDS011;10312;52.434;13.206;2022-08-21T02:58:11;5.68;;;3.50;;
20306;SDS011;10312;52.434;13.206;2022-08-21T03:00:40;5.28;;;3.60;;
20306;SDS011;10312;52.434;13.206;2022-08-21T03:03:07;6.32;;;3.30;;
20306;SDS011;10312;52.434;13.206;2022-08-21T03:05:34;7.88;;;3.80;;
20306;SDS011;10312;52.434;13.206;2022-08-21T03:08:04;7.15;;;3.28;;
20306;SDS011;10312;52.434;13.206;2022-08-21T03:10:37;7.97;;;3.92;;
20306;SDS011;10312;52.434;13.206;2022-08-21T03:13:06;7.25;;;4.00;;
20306;SDS011;10312;52.434;13.206;2022-08-21T03:15:33;6.75;;;3.67;;
20306;SDS011;10312;52.434;13.206;2022-08-21T03:18:01;7.00;;;4.18;;
20306;SDS011;10312;52.434;13.206;2022-08-21T03:20:28;7.75;;;3.55;;
20306;SDS011;10312;52.434;13.206;2022-08-21T03:22:55;4.15;;;3.22;;
20306;SDS011;10312;52.434;13.206;2022-08-21T03:25:23;5.55;;;3.42;;
20306;SDS011;10312;52.434;13.206;2022-08-21T03:28:07;8.45;;;3.88;;
20306;SDS011;10312;52.434;13.206;2022-08-21T03:30:38;7.35;;;3.28;;
20306;SDS011;10312;52.434;13.206;2022-08-21T03:33:09;8.00;;;3.53;;
20306;SDS011;10312;52.434;13.206;2022-08-21T03:35:40;9.27;;;3.22;;
20306;SDS011;10312;52.434;13.206;2022-08-21T03:38:11;7.20;;;3.15;;
20306;SDS011;10312;52.434;13.206;2022-08-21T03:40:40;7.03;;;3.38;;
20306;SDS011;10312;52.434;13.206;2022-08-21T03:43:07;5.95;;;3.00;;
20306;SDS011;10312;52.434;13.206;2022-08-21T03:45:35;7.25;;;3.10;;
20306;SDS011;10312;52.434;13.206;2022-08-21T03:48:02;4.68;;;2.75;;
20306;SDS011;10312;52.434;13.206;2022-08-21T03:50:31;9.18;;;3.10;;
20306;SDS011;10312;52.434;13.206;2022-08-21T03:53:05;6.38;;;2.80;;
20306;SDS011;10312;52.434;13.206;2022-08-21T03:55:32;8.85;;;2.78;;
20306;SDS011;10312;52.434;13.206;2022-08-21T03:57:59;7.70;;;3.30;;
20306;SDS011;10312;52.434;13.206;2022-08-21T04:00:42;8.82;;;3.30;;
20306;SDS011;10312;52.434;13.206;2022-08-21T04:03:10;5.47;;;3.03;;
20306;SDS011;10312;52.434;13.206;2022-08-21T04:05:37;7.95;;;3.10;;
20306;SDS011;10312;52.434;13.206;2022-08-21T04:08:04;5.80;;;2.97;;
20306;SDS011;10312;52.434;13.206;2022-08-21T04:10:32;6.15;;;2.90;;
20306;SDS011;10312;52.434;13.206;2022-08-21T04:13:01;5.60;;;2.78;;
20306;SDS011;10312;52.434;13.206;2022-08-21T04:15:28;8.93;;;3.67;;
20306;SDS011;10312;52.434;13.206;2022-08-21T04:17:54;8.32;;;3.00;;
20306;SDS011;10312;52.434;13.206;2022-08-21T04:20:21;7.25;;;2.92;;
20306;SDS011;10312;52.434;13.206;2022-08-21T04:22:49;5.22;;;2.63;;
20306;SDS011;10312;52.434;13.206;2022-08-21T04:25:17;7.97;;;2.92;;
20306;SDS011;10312;52.434;13.206;2022-08-21T04:27:46;6.20;;;2.75;;
20306;SDS011;10312;52.434;13.206;2022-08-21T04:30:13;7.82;;;2.63;;
20306;SDS011;10312;52.434;13.206;2022-08-21T04:32:44;8.40;;;2.70;;
20306;SDS011;10312;52.434;13.206;2022-08-21T04:35:16;5.68;;;2.67;;
20306;SDS011;10312;52.434;13.206;2022-08-21T04:37:48;5.60;;;2.55;;
20306;SDS011;10312;52.434;13.206;2022-08-21T04:40:15;9.45;;;3.42;;
20306;SDS011;10312;52.434;13.206;2022-08-21T04:42:44;6.60;;;3.03;;
20306;SDS011;10312;52.434;13.206;2022-08-21T04:45:16;7.50;;;2.60;;
20306;SDS011;10312;52.434;13.206;2022-08-21T04:47:43;6.32;;;2.70;;
20306;SDS011;10312;52.434;13.206;2022-08-21T04:50:18;7.18;;;2.42;;
20306;SDS011;10312;52.434;13.206;2022-08-21T04:53:01;5.38;;;2.30;;
20306;SDS011;10312;52.434;13.206;2022-08-21T04:55:28;7.70;;;2.30;;
20306;SDS011;10312;52.434;13.206;2022-08-21T04:57:55;5.03;;;2.72;;
20306;SDS011;10312;52.434;13.206;2022-08-21T05:00:23;8.45;;;2.70;;
20306;SDS011;10312;52.434;13.206;2022-08-21T05:02:51;7.50;;;2.30;;
20306;SDS011;10312;52.434;13.206;2022-08-21T05:05:23;10.23;;;2.50;;
20306;SDS011;10312;52.434;13.206;2022-08-21T05:07:50;6.47;;;2.40;;
20306;SDS011;10312;52.434;13.206;2022-08-21T05:10:18;7.20;;;2.33;;
20306;SDS011;10312;52.434;13.206;2022-08-21T05:12:45;8.10;;;2.22;;
20306;SDS011;10312;52.434;13.206;2022-08-21T05:15:12;7.40;;;2.30;;
20306;SDS011;10312;52.434;13.206;2022-08-21T05:17:40;8.02;;;2.47;;
20306;SDS011;10312;52.434;13.206;2022-08-21T05:20:11;6.55;;;2.33;;
20306;SDS011;10312;52.434;13.206;2022-08-21T05:22:39;5.55;;;2.30;;
20306;SDS011;10312;52.434;13.206;2022-08-21T05:25:06;5.50;;;2.17;;
20306;SDS011;10312;52.434;13.206;2022-08-21T05:27:36;6.95;;;2.15;;
20306;SDS011;10312;52.434;13.206;2022-08-21T05:30:05;5.65;;;1.92;;
20306;SDS011;10312;52.434;13.206;2022-08-21T05:32:34;7.97;;;2.30;;
20306;SDS011;10312;52.434;13.206;2022-08-21T05:35:02;8.88;;;2.13;;
20306;SDS011;10312;52.434;13.206;2022-08-21T05:37:30;7.00;;;2.20;;
20306;SDS011;10312;52.434;13.206;2022-08-21T05:39:58;5.78;;;2.40;;
20306;SDS011;10312;52.434;13.206;2022-08-21T05:42:45;6.53;;;1.90;;
20306;SDS011;10312;52.434;13.206;2022-08-21T05:45:21;4.95;;;1.90;;
20306;SDS011;10312;52.434;13.206;2022-08-21T05:48:18;5.15;;;1.73;;
20306;SDS011;10312;52.434;13.206;2022-08-21T05:50:48;6.35;;;1.80;;
20306;SDS011;10312;52.434;13.206;2022-08-21T05:53:16;6.57;;;1.90;;
20306;SDS011;10312;52.434;13.206;2022-08-21T05:55:44;7.65;;;2.63;;
20306;SDS011;10312;52.434;13.206;2022-08-21T05:58:13;6.25;;;1.95;;
20306;SDS011;10312;52.434;13.206;2022-08-21T06:00:41;6.47;;;1.98;;
20306;SDS011;10312;52.434;13.206;2022-08-21T06:03:16;5.88;;;1.80;;
20306;SDS011;10312;52.434;13.206;2022-08-21T06:05:44;7.35;;;1.70;;
20306;SDS011;10312;52.434;13.206;2022-08-21T06:08:12;8.63;;;1.67;;
20306;SDS011;10312;52.434;13.206;2022-08-21T06:10:39;6.45;;;1.73;;
20306;SDS011;10312;52.434;13.206;2022-08-21T06:13:06;6.15;;;1.55;;
20306;SDS011;10312;52.434;13.206;2022-08-21T06:15:33;8.32;;;2.10;;
20306;SDS011;10312;52.434;13.206;2022-08-21T06:18:00;8.00;;;2.17;;
20306;SDS011;10312;52.434;13.206;2022-08-21T06:20:30;7.93;;;2.15;;
20306;SDS011;10312;52.434;13.206;2022-08-21T06:22:58;6.13;;;1.60;;
20306;SDS011;10312;52.434;13.206;2022-08-21T06:25:25;4.97;;;1.70;;
20306;SDS011;10312;52.434;13.206;2022-08-21T06:27:52;7.95;;;1.80;;
20306;SDS011;10312;52.434;13.206;2022-08-21T06:30:19;10.20;;;1.50;;
20306;SDS011;10312;52.434;13.206;2022-08-21T06:32:46;8.18;;;2.17;;
20306;SDS011;10312;52.434;13.206;2022-08-21T06:35:12;5.63;;;1.88;;
20306;SDS011;10312;52.434;13.206;2022-08-21T06:37:39;6.07;;;1.65;;
20306;SDS011;10312;52.434;13.206;2022-08-21T06:40:06;7.20;;;2.20;;
20306;SDS011;10312;52.434;13.206;2022-08-21T06:42:38;10.00;;;1.83;;
20306;SDS011;10312;52.434;13.206;2022-08-21T06:45:06;7.18;;;2.10;;
20306;SDS011;10312;52.434;13.206;2022-08-21T06:47:33;6.43;;;1.65;;
20306;SDS011;10312;52.434;13.206;2022-08-21T06:50:00;4.03;;;1.55;;
20306;SDS011;10312;52.434;13.206;2022-08-21T06:52:27;7.05;;;1.90;;
20306;SDS011;10312;52.434;13.206;2022-08-21T06:54:54;7.97;;;2.95;;
20306;SDS011;10312;52.434;13.206;2022-08-21T06:57:21;6.50;;;1.90;;
20306;SDS011;10312;52.434;13.206;2022-08-21T06:59:48;4.13;;;1.83;;
20306;SDS011;10312;52.434;13.206;2022-08-21T07:02:14;7.35;;;1.73;;
20306;SDS011;10312;52.434;13.206;2022-08-21T07:04:41;3.58;;;1.40;;
20306;SDS011;10312;52.434;13.206;2022-08-21T07:07:08;4.97;;;1.52;;
20306;SDS011;10312;52.434;13.206;2022-08-21T07:09:35;8.70;;;1.88;;
20306;SDS011;10312;52.434;13.206;2022-08-21T07:12:02;4.95;;;1.50;;
20306;SDS011;10312;52.434;13.206;2022-08-21T07:14:29;6.03;;;1.40;;
20306;SDS011;10312;52.434;13.206;2022-08-21T07:16:56;9.23;;;1.48;;
20306;SDS011;10312;52.434;13.206;2022-08-21T07:19:23;10.95;;;1.77;;
20306;SDS011;10312;52.434;13.206;2022-08-21T07:21:57;7.82;;;1.52;;
20306;SDS011;10312;52.434;13.206;2022-08-21T07:24:25;7.57;;;1.75;;
20306;SDS011;10312;52.434;13.206;2022-08-21T07:26:52;4.25;;;1.40;;
20306;SDS011;10312;52.434;13.206;2022-08-21T07:29:19;7.05;;;1.27;;
20306;SDS011;10312;52.434;13.206;2022-08-21T07:31:45;6.18;;;1.52;;
20306;SDS011;10312;52.434;13.206;2022-08-21T07:34:12;11.07;;;1.30;;
20306;SDS011;10312;52.434;13.206;2022-08-21T07:36:39;5.60;;;1.40;;
20306;SDS011;10312;52.434;13.206;2022-08-21T07:39:06;3.97;;;1.33;;
20306;SDS011;10312;52.434;13.206;2022-08-21T07:41:34;4.75;;;1.10;;
20306;SDS011;10312;52.434;13.206;2022-08-21T07:44:01;4.05;;;1.05;;
20306;SDS011;10312;52.434;13.206;2022-08-21T07:46:31;4.97;;;1.23;;
20306;SDS011;10312;52.434;13.206;2022-08-21T07:48:58;7.25;;;1.08;;
20306;SDS011;10312;52.434;13.206;2022-08-21T07:51:26;2.88;;;1.20;;
20306;SDS011;10312;52.434;13.206;2022-08-21T07:53:55;6.22;;;1.25;;
20306;SDS011;10312;52.434;13.206;2022-08-21T07:56:23;5.85;;;1.20;;
20306;SDS011;10312;52.434;13.206;2022-08-21T07:58:50;5.90;;;1.45;;
20306;SDS011;10312;52.434;13.206;2022-08-21T08:01:17;6.80;;;1.23;;
20306;SDS011;10312;52.434;13.206;2022-08-21T08:03:44;5.30;;;1.55;;
20306;SDS011;10312;52.434;13.206;2022-08-21T08:06:12;5.15;;;1.20;;
20306;SDS011;10312;52.434;13.206;2022-08-21T08:08:40;4.80;;;1.00;;
20306;SDS011;10312;52.434;13.206;2022-08-21T08:11:08;4.03;;;0.80;;
20306;SDS011;10312;52.434;13.206;2022-08-21T08:13:47;2.20;;;0.80;;
20306;SDS011;10312;52.434;13.206;2022-08-21T08:16:17;4.80;;;1.38;;
20306;SDS011;10312;52.434;13.206;2022-08-21T08:18:44;4.63;;;1.08;;
20306;SDS011;10312;52.434;13.206;2022-08-21T08:21:11;6.32;;;1.05;;
20306;SDS011;10312;52.434;13.206;2022-08-21T08:23:39;6.25;;;1.38;;
20306;SDS011;10312;52.434;13.206;2022-08-21T08:26:06;4.00;;;1.10;;
20306;SDS011;10312;52.434;13.206;2022-08-21T08:28:33;3.47;;;0.93;;
20306;SDS011;10312;52.434;13.206;2022-08-21T08:31:00;4.28;;;1.35;;
20306;SDS011;10312;52.434;13.206;2022-08-21T08:33:27;4.53;;;1.13;;
20306;SDS011;10312;52.434;13.206;2022-08-21T08:35:54;4.68;;;1.00;;
20306;SDS011;10312;52.434;13.206;2022-08-21T08:38:22;3.53;;;1.10;;
20306;SDS011;10312;52.434;13.206;2022-08-21T08:43:25;12.65;;;4.43;;
20306;SDS011;10312;52.434;13.206;2022-08-21T08:45:53;5.88;;;1.80;;
20306;SDS011;10312;52.434;13.206;2022-08-21T08:51:20;6.40;;;1.60;;
20306;SDS011;10312;52.434;13.206;2022-08-21T08:53:58;10.32;;;2.35;;
20306;SDS011;10312;52.434;13.206;2022-08-21T08:56:28;5.72;;;1.40;;
20306;SDS011;10312;52.434;13.206;2022-08-21T08:59:02;5.60;;;1.20;;
20306;SDS011;10312;52.434;13.206;2022-08-21T09:01:34;5.32;;;1.80;;
20306;SDS011;10312;52.434;13.206;2022-08-21T09:04:04;10.05;;;2.75;;
20306;SDS011;10312;52.434;13.206;2022-08-21T09:09:40;5.75;;;1.20;;
20306;SDS011;10312;52.434;13.206;2022-08-21T09:12:52;7.15;;;2.75;;
20306;SDS011;10312;52.434;13.206;2022-08-21T09:23:36;5.00;;;1.30;;
20306;SDS011;10312;52.434;13.206;2022-08-21T09:26:14;7.00;;;1.15;;
20306;SDS011;10312;52.434;13.206;2022-08-21T09:28:49;7.70;;;1.40;;
20306;SDS011;10312;52.434;13.206;2022-08-21T09:31:21;5.03;;;1.40;;
20306;SDS011;10312;52.434;13.206;2022-08-21T09:33:56;4.45;;;1.10;;
20306;SDS011;10312;52.434;13.206;2022-08-21T09:36:47;3.83;;;1.50;;
20306;SDS011;10312;52.434;13.206;2022-08-21T09:39:28;3.38;;;1.08;;
20306;SDS011;10312;52.434;13.206;2022-08-21T09:42:07;3.63;;;1.35;;
20306;SDS011;10312;52.434;13.206;2022-08-21T09:44:37;7.07;;;1.08;;
20306;SDS011;10312;52.434;13.206;2022-08-21T09:47:07;3.70;;;1.30;;
20306;SDS011;10312;52.434;13.206;2022-08-21T09:49:38;6.20;;;1.27;;
20306;SDS011;10312;52.434;13.206;2022-08-21T09:52:17;3.75;;;1.10;;
20306;SDS011;10312;52.434;13.206;2022-08-21T09:54:50;5.25;;;1.25;;
20306;SDS011;10312;52.434;13.206;2022-08-21T09:57:25;5.25;;;1.30;;
20306;SDS011;10312;52.434;13.206;2022-08-21T10:00:19;5.78;;;1.80;;
20306;SDS011;10312;52.434;13.206;2022-08-21T10:02:51;4.30;;;1.17;;
20306;SDS011;10312;52.434;13.206;2022-08-21T10:07:53;5.03;;;1.60;;
20306;SDS011;10312;52.434;13.206;2022-08-21T10:10:21;3.13;;;0.98;;
20306;SDS011;10312;52.434;13.206;2022-08-21T10:13:45;6.00;;;1.33;;
20306;SDS011;10312;52.434;13.206;2022-08-21T10:18:37;3.85;;;1.00;;
20306;SDS011;10312;52.434;13.206;2022-08-21T10:24:07;4.97;;;1.30;;
20306;SDS011;10312;52.434;13.206;2022-08-21T10:30:05;4.60;;;1.20;;
20306;SDS011;10312;52.434;13.206;2022-08-21T10:32:55;6.70;;;1.10;;
20306;SDS011;10312;52.434;13.206;2022-08-21T10:35:29;5.25;;;1.38;;
20306;SDS011;10312;52.434;13.206;2022-08-21T10:38:05;5.45;;;1.13;;
20306;SDS011;10312;52.434;13.206;2022-08-21T10:57:22;3.90;;;0.85;;
20306;SDS011;10312;52.434;13.206;2022-08-21T11:00:05;4.40;;;0.85;;
20306;SDS011;10312;52.434;13.206;2022-08-21T11:05:19;4.43;;;0.73;;
20306;SDS011;10312;52.434;13.206;2022-08-21T11:07:53;3.70;;;0.63;;
20306;SDS011;10312;52.434;13.206;2022-08-21T11:10:31;2.58;;;1.00;;
20306;SDS011;10312;52.434;13.206;2022-08-21T11:13:47;2.08;;;0.80;;
20306;SDS011;10312;52.434;13.206;2022-08-21T11:18:52;5.38;;;0.98;;
20306;SDS011;10312;52.434;13.206;2022-08-21T11:21:36;4.28;;;0.93;;
20306;SDS011;10312;52.434;13.206;2022-08-21T11:24:20;3.85;;;1.02;;
20306;SDS011;10312;52.434;13.206;2022-08-21T11:29:45;3.58;;;0.98;;
20306;SDS011;10312;52.434;13.206;2022-08-21T11:35:06;4.53;;;1.17;;
20306;SDS011;10312;52.434;13.206;2022-08-21T11:37:49;5.65;;;1.90;;
20306;SDS011;10312;52.434;13.206;2022-08-21T11:48:59;3.83;;;1.05;;
20306;SDS011;10312;52.434;13.206;2022-08-21T11:57:04;3.88;;;0.93;;
20306;SDS011;10312;52.434;13.206;2022-08-21T11:59:37;3.85;;;1.10;;
20306;SDS011;10312;52.434;13.206;2022-08-21T12:02:13;4.43;;;1.27;;
20306;SDS011;10312;52.434;13.206;2022-08-21T12:05:04;2.50;;;0.75;;
20306;SDS011;10312;52.434;13.206;2022-08-21T12:07:40;2.75;;;0.80;;
20306;SDS011;10312;52.434;13.206;2022-08-21T12:10:16;2.53;;;0.80;;
20306;SDS011;10312;52.434;13.206;2022-08-21T12:12:47;3.22;;;1.00;;
20306;SDS011;10312;52.434;13.206;2022-08-21T12:15:25;7.30;;;0.88;;
20306;SDS011;10312;52.434;13.206;2022-08-21T12:21:04;4.88;;;1.27;;
20306;SDS011;10312;52.434;13.206;2022-08-21T12:24:19;3.10;;;0.93;;
20306;SDS011;10312;52.434;13.206;2022-08-21T12:29:28;2.67;;;1.05;;
20306;SDS011;10312;52.434;13.206;2022-08-21T12:34:40;2.65;;;0.82;;
20306;SDS011;10312;52.434;13.206;2022-08-21T12:37:15;3.70;;;1.00;;
20306;SDS011;10312;52.434;13.206;2022-08-21T12:40:03;3.45;;;0.98;;
20306;SDS011;10312;52.434;13.206;2022-08-21T12:42:38;5.25;;;1.08;;
20306;SDS011;10312;52.434;13.206;2022-08-21T12:45:18;4.00;;;0.90;;
20306;SDS011;10312;52.434;13.206;2022-08-21T12:47:57;4.88;;;1.33;;
20306;SDS011;10312;52.434;13.206;2022-08-21T12:53:31;2.65;;;0.80;;
20306;SDS011;10312;52.434;13.206;2022-08-21T12:56:02;3.13;;;1.00;;
20306;SDS011;10312;52.434;13.206;2022-08-21T12:58:31;3.35;;;0.93;;
20306;SDS011;10312;52.434;13.206;2022-08-21T13:01:01;3.67;;;1.10;;
20306;SDS011;10312;52.434;13.206;2022-08-21T13:03:35;5.20;;;1.05;;
20306;SDS011;10312;52.434;13.206;2022-08-21T13:06:02;6.70;;;1.20;;
20306;SDS011;10312;52.434;13.206;2022-08-21T13:08:31;41.75;;;6.07;;
20306;SDS011;10312;52.434;13.206;2022-08-21T13:11:06;5.53;;;1.25;;
20306;SDS011;10312;52.434;13.206;2022-08-21T13:13:40;8.85;;;1.48;;
20306;SDS011;10312;52.434;13.206;2022-08-21T13:16:18;3.20;;;1.00;;
20306;SDS011;10312;52.434;13.206;2022-08-21T13:18:56;3.75;;;1.13;;
20306;SDS011;10312;52.434;13.206;2022-08-21T13:21:29;3.95;;;0.82;;
20306;SDS011;10312;52.434;13.206;2022-08-21T13:27:17;5.47;;;1.55;;
20306;SDS011;10312;52.434;13.206;2022-08-21T13:29:45;3.25;;;1.02;;
20306;SDS011;10312;52.434;13.206;2022-08-21T13:32:21;2.40;;;0.90;;
20306;SDS011;10312;52.434;13.206;2022-08-21T13:34:50;4.28;;;1.27;;
20306;SDS011;10312;52.434;13.206;2022-08-21T13:37:19;3.00;;;1.02;;
20306;SDS011;10312;52.434;13.206;2022-08-21T13:39:49;3.00;;;1.20;;
20306;SDS011;10312;52.434;13.206;2022-08-21T13:42:18;4.47;;;1.13;;
20306;SDS011;10312;52.434;13.206;2022-08-21T13:44:46;4.32;;;1.35;;
20306;SDS011;10312;52.434;13.206;2022-08-21T13:47:15;4.68;;;1.42;;
20306;SDS011;10312;52.434;13.206;2022-08-21T13:49:43;3.92;;;1.02;;
20306;SDS011;10312;52.434;13.206;2022-08-21T13:52:22;4.38;;;1.30;;
20306;SDS011;10312;52.434;13.206;2022-08-21T13:55:06;2.50;;;1.00;;
20306;SDS011;10312;52.434;13.206;2022-08-21T13:57:37;8.32;;;1.45;;
20306;SDS011;10312;52.434;13.206;2022-08-21T14:00:24;5.05;;;1.23;;
20306;SDS011;10312;52.434;13.206;2022-08-21T14:02:53;6.70;;;2.13;;
20306;SDS011;10312;52.434;13.206;2022-08-21T14:05:30;5.95;;;1.40;;
20306;SDS011;10312;52.434;13.206;2022-08-21T14:08:07;4.95;;;1.58;;
20306;SDS011;10312;52.434;13.206;2022-08-21T14:10:42;4.38;;;1.58;;
20306;SDS011;10312;52.434;13.206;2022-08-21T14:13:24;4.78;;;1.48;;
20306;SDS011;10312;52.434;13.206;2022-08-21T14:15:59;3.63;;;1.40;;
20306;SDS011;10312;52.434;13.206;2022-08-21T14:18:28;2.50;;;1.25;;
20306;SDS011;10312;52.434;13.206;2022-08-21T14:21:05;5.15;;;1.40;;
20306;SDS011;10312;52.434;13.206;2022-08-21T14:23:33;6.68;;;1.52;;
20306;SDS011;10312;52.434;13.206;2022-08-21T14:26:02;7.60;;;1.90;;
20306;SDS011;10312;52.434;13.206;2022-08-21T14:28:31;5.90;;;1.30;;
20306;SDS011;10312;52.434;13.206;2022-08-21T14:31:10;6.45;;;1.50;;
20306;SDS011;10312;52.434;13.206;2022-08-21T14:33:39;6.75;;;1.60;;
20306;SDS011;10312;52.434;13.206;2022-08-21T14:36:06;6.95;;;1.45;;
20306;SDS011;10312;52.434;13.206;2022-08-21T14:38:35;6.80;;;1.27;;
20306;SDS011;10312;52.434;13.206;2022-08-21T14:41:04;5.68;;;1.67;;
20306;SDS011;10312;52.434;13.206;2022-08-21T14:43:37;2.65;;;1.30;;
20306;SDS011;10312;52.434;13.206;2022-08-21T14:46:04;7.97;;;1.50;;
20306;SDS011;10312;52.434;13.206;2022-08-21T14:48:31;3.83;;;1.17;;
20306;SDS011;10312;52.434;13.206;2022-08-21T14:50:58;3.63;;;1.33;;
20306;SDS011;10312;52.434;13.206;2022-08-21T14:53:26;6.30;;;1.42;;
20306;SDS011;10312;52.434;13.206;2022-08-21T14:55:53;4.78;;;1.30;;
20306;SDS011;10312;52.434;13.206;2022-08-21T14:58:34;4.30;;;1.40;;
20306;SDS011;10312;52.434;13.206;2022-08-21T15:01:02;7.28;;;1.50;;
20306;SDS011;10312;52.434;13.206;2022-08-21T15:03:32;3.55;;;1.33;;
20306;SDS011;10312;52.434;13.206;2022-08-21T15:05:59;3.45;;;1.40;;
20306;SDS011;10312;52.434;13.206;2022-08-21T15:08:26;5.70;;;1.27;;
20306;SDS011;10312;52.434;13.206;2022-08-21T15:10:53;6.22;;;1.55;;
20306;SDS011;10312;52.434;13.206;2022-08-21T15:13:38;5.70;;;1.67;;
20306;SDS011;10312;52.434;13.206;2022-08-21T15:16:05;7.88;;;1.85;;
20306;SDS011;10312;52.434;13.206;2022-08-21T15:18:32;4.97;;;1.70;;
20306;SDS011;10312;52.434;13.206;2022-08-21T15:20:58;5.57;;;1.70;;
20306;SDS011;10312;52.434;13.206;2022-08-21T15:23:25;5.72;;;1.70;;
20306;SDS011;10312;52.434;13.206;2022-08-21T15:25:52;4.55;;;1.50;;
20306;SDS011;10312;52.434;13.206;2022-08-21T15:28:19;5.28;;;1.70;;
20306;SDS011;10312;52.434;13.206;2022-08-21T15:30:50;3.78;;;1.65;;
20306;SDS011;10312;52.434;13.206;2022-08-21T15:33:17;4.35;;;1.27;;
20306;SDS011;10312;52.434;13.206;2022-08-21T15:35:44;7.22;;;1.75;;
20306;SDS011;10312;52.434;13.206;2022-08-21T15:38:12;5.43;;;1.65;;
20306;SDS011;10312;52.434;13.206;2022-08-21T15:40:41;5.85;;;1.65;;
20306;SDS011;10312;52.434;13.206;2022-08-21T15:43:22;9.25;;;1.50;;
20306;SDS011;10312;52.434;13.206;2022-08-21T15:45:59;3.58;;;1.38;;
20306;SDS011;10312;52.434;13.206;2022-08-21T15:48:27;4.28;;;1.48;;
20306;SDS011;10312;52.434;13.206;2022-08-21T15:50:57;5.25;;;1.40;;
20306;SDS011;10312;52.434;13.206;2022-08-21T15:53:24;7.63;;;1.75;;
20306;SDS011;10312;52.434;13.206;2022-08-21T15:55:51;5.88;;;1.67;;
20306;SDS011;10312;52.434;13.206;2022-08-21T15:58:18;3.45;;;1.30;;
20306;SDS011;10312;52.434;13.206;2022-08-21T16:00:47;6.57;;;1.35;;
20306;SDS011;10312;52.434;13.206;2022-08-21T16:03:15;3.88;;;1.52;;
20306;SDS011;10312;52.434;13.206;2022-08-21T16:05:44;3.63;;;1.40;;
20306;SDS011;10312;52.434;13.206;2022-08-21T16:08:11;4.65;;;1.70;;
20306;SDS011;10312;52.434;13.206;2022-08-21T16:10:39;6.07;;;2.33;;
20306;SDS011;10312;52.434;13.206;2022-08-21T16:13:07;6.50;;;1.30;;
20306;SDS011;10312;52.434;13.206;2022-08-21T16:15:40;4.22;;;1.10;;
20306;SDS011;10312;52.434;13.206;2022-08-21T16:18:07;3.58;;;1.27;;
20306;SDS011;10312;52.434;13.206;2022-08-21T16:20:35;7.38;;;1.98;;